sensor_id;sensor_type;location;lat;lon;timestamp;P1;durP1;ratioP1;P2;durP2;ratioP2
81160;SDS011;70637;48.514;14.500;2024-02-15T00:00:11;4.15;;;1.60;;
81160;SDS011;70637;48.514;14.500;2024-02-15T00:02:37;5.07;;;1.88;;
81160;SDS011;70637;48.514;14.500;2024-02-15T00:05:03;4.18;;;1.70;;
81160;SDS011;70637;48.514;14.500;2024-02-15T00:07:28;7.03;;;1.70;;
81160;SDS011;70637;48.514;14.500;2024-02-15T00:09:54;3.45;;;1.70;;
81160;SDS011;70637;48.514;14.500;2024-02-15T00:12:20;5.20;;;1.70;;
81160;SDS011;70637;48.514;14.500;2024-02-15T00:14:46;2.88;;;1.55;;
81160;SDS011;70637;48.514;14.500;2024-02-15T00:17:11;5.97;;;2.00;;
81160;SDS011;70637;48.514;14.500;2024-02-15T00:19:37;4.78;;;1.85;;
81160;SDS011;70637;48.514;14.500;2024-02-15T00:22:05;3.67;;;1.65;;
81160;SDS011;70637;48.514;14.500;2024-02-15T00:24:31;3.20;;;1.42;;
81160;SDS011;70637;48.514;14.500;2024-02-15T00:26:57;3.88;;;1.50;;
81160;SDS011;70637;48.514;14.500;2024-02-15T00:29:22;2.90;;;1.35;;
81160;SDS011;70637;48.514;14.500;2024-02-15T00:31:48;7.13;;;1.60;;
81160;SDS011;70637;48.514;14.500;2024-02-15T00:34:15;3.45;;;1.80;;
81160;SDS011;70637;48.514;14.500;2024-02-15T00:36:44;4.03;;;2.03;;
81160;SDS011;70637;48.514;14.500;2024-02-15T00:39:10;5.00;;;1.77;;
81160;SDS011;70637;48.514;14.500;2024-02-15T00:41:37;3.20;;;1.50;;
81160;SDS011;70637;48.514;14.500;2024-02-15T00:44:06;3.85;;;1.70;;
81160;SDS011;70637;48.514;14.500;2024-02-15T00:46:33;3.17;;;1.90;;
81160;SDS011;70637;48.514;14.500;2024-02-15T00:49:00;2.88;;;1.38;;
81160;SDS011;70637;48.514;14.500;2024-02-15T00:51:25;4.65;;;1.70;;
81160;SDS011;70637;48.514;14.500;2024-02-15T00:53:51;4.85;;;1.70;;
81160;SDS011;70637;48.514;14.500;2024-02-15T00:56:16;4.72;;;1.83;;
81160;SDS011;70637;48.514;14.500;2024-02-15T00:58:42;4.88;;;1.83;;
81160;SDS011;70637;48.514;14.500;2024-02-15T01:01:08;3.50;;;1.58;;
81160;SDS011;70637;48.514;14.500;2024-02-15T01:03:37;3.47;;;1.52;;
81160;SDS011;70637;48.514;14.500;2024-02-15T01:06:03;4.78;;;1.70;;
81160;SDS011;70637;48.514;14.500;2024-02-15T01:08:30;4.22;;;1.70;;
81160;SDS011;70637;48.514;14.500;2024-02-15T01:10:56;4.43;;;1.40;;
81160;SDS011;70637;48.514;14.500;2024-02-15T01:13:22;4.75;;;1.38;;
81160;SDS011;70637;48.514;14.500;2024-02-15T01:15:48;2.60;;;1.40;;
81160;SDS011;70637;48.514;14.500;2024-02-15T01:18:15;4.45;;;1.77;;
81160;SDS011;70637;48.514;14.500;2024-02-15T01:20:40;3.13;;;1.50;;
81160;SDS011;70637;48.514;14.500;2024-02-15T01:23:06;6.00;;;1.67;;
81160;SDS011;70637;48.514;14.500;2024-02-15T01:25:32;4.22;;;1.67;;
81160;SDS011;70637;48.514;14.500;2024-02-15T01:27:58;3.55;;;1.50;;
81160;SDS011;70637;48.514;14.500;2024-02-15T01:30:26;3.95;;;1.52;;
81160;SDS011;70637;48.514;14.500;2024-02-15T01:32:53;4.13;;;1.50;;
81160;SDS011;70637;48.514;14.500;2024-02-15T01:35:19;3.92;;;1.60;;
81160;SDS011;70637;48.514;14.500;2024-02-15T01:37:45;3.20;;;1.40;;
81160;SDS011;70637;48.514;14.500;2024-02-15T01:40:11;4.38;;;1.30;;
81160;SDS011;70637;48.514;14.500;2024-02-15T01:42:40;4.25;;;1.50;;
81160;SDS011;70637;48.514;14.500;2024-02-15T01:45:06;3.08;;;1.60;;
81160;SDS011;70637;48.514;14.500;2024-02-15T01:47:32;4.30;;;1.70;;
81160;SDS011;70637;48.514;14.500;2024-02-15T01:49:57;2.25;;;1.10;;
81160;SDS011;70637;48.514;14.500;2024-02-15T01:52:23;7.40;;;1.77;;
81160;SDS011;70637;48.514;14.500;2024-02-15T01:54:50;3.53;;;1.33;;
81160;SDS011;70637;48.514;14.500;2024-02-15T01:57:18;3.65;;;1.60;;
81160;SDS011;70637;48.514;14.500;2024-02-15T01:59:46;4.00;;;1.60;;
81160;SDS011;70637;48.514;14.500;2024-02-15T02:02:12;2.67;;;1.27;;
81160;SDS011;70637;48.514;14.500;2024-02-15T02:04:41;4.50;;;1.63;;
81160;SDS011;70637;48.514;14.500;2024-02-15T02:07:07;3.40;;;1.70;;
81160;SDS011;70637;48.514;14.500;2024-02-15T02:09:33;3.15;;;1.45;;
81160;SDS011;70637;48.514;14.500;2024-02-15T02:11:59;3.20;;;1.60;;
81160;SDS011;70637;48.514;14.500;2024-02-15T02:14:25;2.95;;;1.48;;
81160;SDS011;70637;48.514;14.500;2024-02-15T02:16:51;3.65;;;1.40;;
81160;SDS011;70637;48.514;14.500;2024-02-15T02:19:16;3.67;;;1.50;;
81160;SDS011;70637;48.514;14.500;2024-02-15T02:21:42;2.22;;;1.30;;
81160;SDS011;70637;48.514;14.500;2024-02-15T02:24:13;3.78;;;1.70;;
81160;SDS011;70637;48.514;14.500;2024-02-15T02:26:43;3.08;;;1.60;;
81160;SDS011;70637;48.514;14.500;2024-02-15T02:29:09;2.33;;;1.20;;
81160;SDS011;70637;48.514;14.500;2024-02-15T02:31:35;3.65;;;1.20;;
81160;SDS011;70637;48.514;14.500;2024-02-15T02:34:01;3.08;;;1.20;;
81160;SDS011;70637;48.514;14.500;2024-02-15T02:36:27;3.28;;;1.55;;
81160;SDS011;70637;48.514;14.500;2024-02-15T02:38:54;2.78;;;1.30;;
81160;SDS011;70637;48.514;14.500;2024-02-15T02:41:20;4.40;;;1.55;;
81160;SDS011;70637;48.514;14.500;2024-02-15T02:43:46;4.28;;;1.40;;
81160;SDS011;70637;48.514;14.500;2024-02-15T02:46:12;3.30;;;1.33;;
81160;SDS011;70637;48.514;14.500;2024-02-15T02:48:38;4.18;;;1.30;;
81160;SDS011;70637;48.514;14.500;2024-02-15T02:51:06;4.60;;;1.30;;
81160;SDS011;70637;48.514;14.500;2024-02-15T02:53:32;2.33;;;1.33;;
81160;SDS011;70637;48.514;14.500;2024-02-15T02:55:58;3.97;;;1.40;;
81160;SDS011;70637;48.514;14.500;2024-02-15T02:58:23;4.38;;;1.70;;
81160;SDS011;70637;48.514;14.500;2024-02-15T03:00:49;3.08;;;1.45;;
81160;SDS011;70637;48.514;14.500;2024-02-15T03:03:16;1.60;;;1.10;;
81160;SDS011;70637;48.514;14.500;2024-02-15T03:05:44;2.58;;;1.20;;
81160;SDS011;70637;48.514;14.500;2024-02-15T03:08:10;3.15;;;1.48;;
81160;SDS011;70637;48.514;14.500;2024-02-15T03:10:38;4.60;;;1.42;;
81160;SDS011;70637;48.514;14.500;2024-02-15T03:13:04;2.33;;;1.40;;
81160;SDS011;70637;48.514;14.500;2024-02-15T03:15:30;2.92;;;1.25;;
81160;SDS011;70637;48.514;14.500;2024-02-15T03:17:58;2.97;;;1.30;;
81160;SDS011;70637;48.514;14.500;2024-02-15T03:20:24;2.40;;;1.20;;
81160;SDS011;70637;48.514;14.500;2024-02-15T03:22:58;4.95;;;1.33;;
81160;SDS011;70637;48.514;14.500;2024-02-15T03:25:26;2.85;;;1.20;;
81160;SDS011;70637;48.514;14.500;2024-02-15T03:27:54;2.55;;;1.30;;
81160;SDS011;70637;48.514;14.500;2024-02-15T03:30:22;2.22;;;1.30;;
81160;SDS011;70637;48.514;14.500;2024-02-15T03:32:51;3.55;;;1.40;;
81160;SDS011;70637;48.514;14.500;2024-02-15T03:35:18;2.38;;;1.50;;
81160;SDS011;70637;48.514;14.500;2024-02-15T03:37:48;4.53;;;1.40;;
81160;SDS011;70637;48.514;14.500;2024-02-15T03:40:17;3.08;;;1.35;;
81160;SDS011;70637;48.514;14.500;2024-02-15T03:42:44;2.58;;;1.20;;
81160;SDS011;70637;48.514;14.500;2024-02-15T03:45:10;2.05;;;1.30;;
81160;SDS011;70637;48.514;14.500;2024-02-15T03:47:36;2.20;;;1.20;;
81160;SDS011;70637;48.514;14.500;2024-02-15T03:50:05;3.92;;;1.30;;
81160;SDS011;70637;48.514;14.500;2024-02-15T03:52:34;1.88;;;1.25;;
81160;SDS011;70637;48.514;14.500;2024-02-15T03:55:00;2.42;;;1.27;;
81160;SDS011;70637;48.514;14.500;2024-02-15T03:57:27;2.25;;;1.40;;
81160;SDS011;70637;48.514;14.500;2024-02-15T03:59:53;2.22;;;1.30;;
81160;SDS011;70637;48.514;14.500;2024-02-15T04:02:20;2.50;;;1.25;;
81160;SDS011;70637;48.514;14.500;2024-02-15T04:04:46;3.50;;;1.20;;
81160;SDS011;70637;48.514;14.500;2024-02-15T04:07:15;3.25;;;1.30;;
81160;SDS011;70637;48.514;14.500;2024-02-15T04:09:44;3.80;;;1.17;;
81160;SDS011;70637;48.514;14.500;2024-02-15T04:12:10;3.90;;;1.27;;
81160;SDS011;70637;48.514;14.500;2024-02-15T04:14:37;3.53;;;1.38;;
81160;SDS011;70637;48.514;14.500;2024-02-15T04:17:06;4.28;;;1.20;;
81160;SDS011;70637;48.514;14.500;2024-02-15T04:19:32;1.83;;;1.27;;
81160;SDS011;70637;48.514;14.500;2024-02-15T04:21:58;3.55;;;1.50;;
81160;SDS011;70637;48.514;14.500;2024-02-15T04:24:25;1.75;;;1.15;;
81160;SDS011;70637;48.514;14.500;2024-02-15T04:26:51;2.63;;;1.20;;
81160;SDS011;70637;48.514;14.500;2024-02-15T04:29:17;4.35;;;1.30;;
81160;SDS011;70637;48.514;14.500;2024-02-15T04:31:45;2.45;;;1.23;;
81160;SDS011;70637;48.514;14.500;2024-02-15T04:34:14;4.22;;;1.20;;
81160;SDS011;70637;48.514;14.500;2024-02-15T04:36:40;3.58;;;1.40;;
81160;SDS011;70637;48.514;14.500;2024-02-15T04:39:07;3.00;;;1.17;;
81160;SDS011;70637;48.514;14.500;2024-02-15T04:41:35;2.17;;;1.10;;
81160;SDS011;70637;48.514;14.500;2024-02-15T04:44:04;2.13;;;1.27;;
81160;SDS011;70637;48.514;14.500;2024-02-15T04:46:30;2.83;;;1.40;;
81160;SDS011;70637;48.514;14.500;2024-02-15T04:48:56;2.50;;;1.23;;
81160;SDS011;70637;48.514;14.500;2024-02-15T04:51:25;1.80;;;1.20;;
81160;SDS011;70637;48.514;14.500;2024-02-15T04:53:52;1.98;;;1.20;;
81160;SDS011;70637;48.514;14.500;2024-02-15T04:56:18;2.00;;;1.10;;
81160;SDS011;70637;48.514;14.500;2024-02-15T04:58:46;3.05;;;1.10;;
81160;SDS011;70637;48.514;14.500;2024-02-15T05:01:16;3.85;;;1.13;;
81160;SDS011;70637;48.514;14.500;2024-02-15T05:03:42;2.58;;;1.08;;
81160;SDS011;70637;48.514;14.500;2024-02-15T05:06:09;3.03;;;1.50;;
81160;SDS011;70637;48.514;14.500;2024-02-15T05:08:35;4.70;;;1.25;;
81160;SDS011;70637;48.514;14.500;2024-02-15T05:11:10;1.90;;;1.15;;
81160;SDS011;70637;48.514;14.500;2024-02-15T05:13:47;2.72;;;1.17;;
81160;SDS011;70637;48.514;14.500;2024-02-15T05:16:16;2.30;;;1.00;;
81160;SDS011;70637;48.514;14.500;2024-02-15T05:18:43;3.15;;;1.30;;
81160;SDS011;70637;48.514;14.500;2024-02-15T05:21:10;2.08;;;1.05;;
81160;SDS011;70637;48.514;14.500;2024-02-15T05:23:38;2.92;;;1.10;;
81160;SDS011;70637;48.514;14.500;2024-02-15T05:26:05;5.57;;;1.60;;
81160;SDS011;70637;48.514;14.500;2024-02-15T05:28:31;4.00;;;1.40;;
81160;SDS011;70637;48.514;14.500;2024-02-15T05:31:10;14.35;;;1.80;;
81160;SDS011;70637;48.514;14.500;2024-02-15T05:33:37;8.23;;;1.70;;
81160;SDS011;70637;48.514;14.500;2024-02-15T05:36:11;12.38;;;2.80;;
81160;SDS011;70637;48.514;14.500;2024-02-15T05:41:06;22.48;;;4.28;;
81160;SDS011;70637;48.514;14.500;2024-02-15T05:43:36;23.00;;;4.60;;
81160;SDS011;70637;48.514;14.500;2024-02-15T05:46:05;18.15;;;4.20;;
81160;SDS011;70637;48.514;14.500;2024-02-15T05:48:34;26.95;;;4.97;;
81160;SDS011;70637;48.514;14.500;2024-02-15T05:51:00;31.63;;;6.05;;
81160;SDS011;70637;48.514;14.500;2024-02-15T05:53:26;26.77;;;5.15;;
81160;SDS011;70637;48.514;14.500;2024-02-15T05:55:52;21.38;;;5.80;;
81160;SDS011;70637;48.514;14.500;2024-02-15T05:58:19;22.50;;;5.47;;
81160;SDS011;70637;48.514;14.500;2024-02-15T06:00:45;28.98;;;5.50;;
81160;SDS011;70637;48.514;14.500;2024-02-15T06:03:14;30.58;;;5.85;;
81160;SDS011;70637;48.514;14.500;2024-02-15T06:05:40;24.98;;;5.53;;
81160;SDS011;70637;48.514;14.500;2024-02-15T06:08:06;26.67;;;5.90;;
81160;SDS011;70637;48.514;14.500;2024-02-15T06:10:32;27.67;;;5.25;;
81160;SDS011;70637;48.514;14.500;2024-02-15T06:12:58;25.00;;;5.97;;
81160;SDS011;70637;48.514;14.500;2024-02-15T06:15:24;21.52;;;5.30;;
81160;SDS011;70637;48.514;14.500;2024-02-15T06:17:51;21.73;;;5.65;;
81160;SDS011;70637;48.514;14.500;2024-02-15T06:20:17;26.48;;;5.45;;
81160;SDS011;70637;48.514;14.500;2024-02-15T06:22:45;20.42;;;5.18;;
81160;SDS011;70637;48.514;14.500;2024-02-15T06:25:11;24.23;;;5.15;;
81160;SDS011;70637;48.514;14.500;2024-02-15T06:27:38;22.25;;;5.15;;
81160;SDS011;70637;48.514;14.500;2024-02-15T06:30:06;20.05;;;5.70;;
81160;SDS011;70637;48.514;14.500;2024-02-15T06:32:52;19.40;;;5.03;;
81160;SDS011;70637;48.514;14.500;2024-02-15T06:38:27;20.20;;;4.88;;
81160;SDS011;70637;48.514;14.500;2024-02-15T06:41:12;22.35;;;4.88;;
81160;SDS011;70637;48.514;14.500;2024-02-15T06:43:37;22.90;;;5.40;;
81160;SDS011;70637;48.514;14.500;2024-02-15T06:46:06;14.30;;;4.65;;
81160;SDS011;70637;48.514;14.500;2024-02-15T06:48:32;16.23;;;5.10;;
81160;SDS011;70637;48.514;14.500;2024-02-15T06:50:58;19.13;;;4.70;;
81160;SDS011;70637;48.514;14.500;2024-02-15T06:53:24;21.10;;;5.22;;
81160;SDS011;70637;48.514;14.500;2024-02-15T06:55:49;14.05;;;4.03;;
81160;SDS011;70637;48.514;14.500;2024-02-15T06:58:15;16.98;;;4.50;;
81160;SDS011;70637;48.514;14.500;2024-02-15T07:00:42;14.07;;;4.10;;
81160;SDS011;70637;48.514;14.500;2024-02-15T07:03:08;13.57;;;3.97;;
81160;SDS011;70637;48.514;14.500;2024-02-15T07:05:36;15.18;;;4.57;;
81160;SDS011;70637;48.514;14.500;2024-02-15T07:08:03;11.88;;;4.45;;
81160;SDS011;70637;48.514;14.500;2024-02-15T07:10:30;10.07;;;3.78;;
81160;SDS011;70637;48.514;14.500;2024-02-15T07:12:56;11.05;;;4.25;;
81160;SDS011;70637;48.514;14.500;2024-02-15T07:15:22;10.25;;;3.72;;
81160;SDS011;70637;48.514;14.500;2024-02-15T07:17:48;12.70;;;3.90;;
81160;SDS011;70637;48.514;14.500;2024-02-15T07:20:13;10.70;;;3.80;;
81160;SDS011;70637;48.514;14.500;2024-02-15T07:22:42;9.00;;;3.38;;
81160;SDS011;70637;48.514;14.500;2024-02-15T07:25:10;10.38;;;3.40;;
81160;SDS011;70637;48.514;14.500;2024-02-15T07:27:36;8.90;;;3.50;;
81160;SDS011;70637;48.514;14.500;2024-02-15T07:30:02;9.95;;;3.65;;
81160;SDS011;70637;48.514;14.500;2024-02-15T07:32:30;10.05;;;3.65;;
81160;SDS011;70637;48.514;14.500;2024-02-15T07:34:56;8.52;;;3.40;;
81160;SDS011;70637;48.514;14.500;2024-02-15T07:37:22;10.18;;;4.10;;
81160;SDS011;70637;48.514;14.500;2024-02-15T07:39:51;7.97;;;3.33;;
81160;SDS011;70637;48.514;14.500;2024-02-15T07:42:17;9.48;;;3.70;;
81160;SDS011;70637;48.514;14.500;2024-02-15T07:44:43;11.45;;;4.00;;
81160;SDS011;70637;48.514;14.500;2024-02-15T07:47:08;8.23;;;2.90;;
81160;SDS011;70637;48.514;14.500;2024-02-15T07:49:35;10.20;;;3.40;;
81160;SDS011;70637;48.514;14.500;2024-02-15T07:52:02;8.73;;;3.50;;
81160;SDS011;70637;48.514;14.500;2024-02-15T07:54:29;9.15;;;3.58;;
81160;SDS011;70637;48.514;14.500;2024-02-15T07:56:58;7.95;;;3.55;;
81160;SDS011;70637;48.514;14.500;2024-02-15T07:59:23;9.35;;;3.00;;
81160;SDS011;70637;48.514;14.500;2024-02-15T08:01:49;8.15;;;3.20;;
81160;SDS011;70637;48.514;14.500;2024-02-15T08:04:16;7.93;;;3.25;;
81160;SDS011;70637;48.514;14.500;2024-02-15T08:06:46;6.30;;;3.10;;
81160;SDS011;70637;48.514;14.500;2024-02-15T08:09:15;8.57;;;3.28;;
81160;SDS011;70637;48.514;14.500;2024-02-15T08:11:43;8.75;;;3.35;;
81160;SDS011;70637;48.514;14.500;2024-02-15T08:14:08;7.53;;;3.10;;
81160;SDS011;70637;48.514;14.500;2024-02-15T08:16:35;8.88;;;3.63;;
81160;SDS011;70637;48.514;14.500;2024-02-15T08:19:06;9.55;;;3.40;;
81160;SDS011;70637;48.514;14.500;2024-02-15T08:21:32;8.15;;;3.17;;
81160;SDS011;70637;48.514;14.500;2024-02-15T08:24:03;7.45;;;3.45;;
81160;SDS011;70637;48.514;14.500;2024-02-15T08:26:36;7.70;;;2.85;;
81160;SDS011;70637;48.514;14.500;2024-02-15T08:29:03;7.85;;;3.33;;
81160;SDS011;70637;48.514;14.500;2024-02-15T08:31:29;7.10;;;3.00;;
81160;SDS011;70637;48.514;14.500;2024-02-15T08:33:56;6.60;;;2.88;;
81160;SDS011;70637;48.514;14.500;2024-02-15T08:36:22;6.15;;;2.67;;
81160;SDS011;70637;48.514;14.500;2024-02-15T08:38:49;6.60;;;3.10;;
81160;SDS011;70637;48.514;14.500;2024-02-15T08:41:15;6.55;;;2.80;;
81160;SDS011;70637;48.514;14.500;2024-02-15T08:43:43;7.65;;;3.00;;
81160;SDS011;70637;48.514;14.500;2024-02-15T08:46:09;5.60;;;2.72;;
81160;SDS011;70637;48.514;14.500;2024-02-15T08:48:37;5.40;;;2.50;;
81160;SDS011;70637;48.514;14.500;2024-02-15T08:51:03;5.78;;;2.42;;
81160;SDS011;70637;48.514;14.500;2024-02-15T08:53:31;4.03;;;2.33;;
81160;SDS011;70637;48.514;14.500;2024-02-15T08:55:57;5.55;;;2.40;;
81160;SDS011;70637;48.514;14.500;2024-02-15T08:58:22;4.35;;;2.15;;
81160;SDS011;70637;48.514;14.500;2024-02-15T09:00:48;5.32;;;2.60;;
81160;SDS011;70637;48.514;14.500;2024-02-15T09:03:14;5.35;;;2.10;;
81160;SDS011;70637;48.514;14.500;2024-02-15T09:05:39;5.18;;;2.30;;
81160;SDS011;70637;48.514;14.500;2024-02-15T09:08:05;4.45;;;2.30;;
81160;SDS011;70637;48.514;14.500;2024-02-15T09:10:31;5.60;;;2.22;;
81160;SDS011;70637;48.514;14.500;2024-02-15T09:12:57;5.95;;;2.28;;
81160;SDS011;70637;48.514;14.500;2024-02-15T09:15:22;3.72;;;2.08;;
81160;SDS011;70637;48.514;14.500;2024-02-15T09:17:48;3.95;;;2.25;;
81160;SDS011;70637;48.514;14.500;2024-02-15T09:20:15;5.68;;;2.53;;
81160;SDS011;70637;48.514;14.500;2024-02-15T09:22:45;4.50;;;2.03;;
81160;SDS011;70637;48.514;14.500;2024-02-15T09:25:17;3.85;;;2.10;;
81160;SDS011;70637;48.514;14.500;2024-02-15T09:27:43;6.30;;;2.28;;
81160;SDS011;70637;48.514;14.500;2024-02-15T09:30:11;6.00;;;2.28;;
81160;SDS011;70637;48.514;14.500;2024-02-15T09:32:37;5.10;;;2.10;;
81160;SDS011;70637;48.514;14.500;2024-02-15T09:35:06;4.25;;;1.95;;
81160;SDS011;70637;48.514;14.500;2024-02-15T09:37:36;5.38;;;2.20;;
81160;SDS011;70637;48.514;14.500;2024-02-15T09:40:08;5.40;;;2.17;;
81160;SDS011;70637;48.514;14.500;2024-02-15T09:42:37;5.47;;;2.35;;
81160;SDS011;70637;48.514;14.500;2024-02-15T09:45:05;4.50;;;2.15;;
81160;SDS011;70637;48.514;14.500;2024-02-15T09:47:33;4.32;;;2.17;;
81160;SDS011;70637;48.514;14.500;2024-02-15T09:50:01;3.00;;;1.80;;
81160;SDS011;70637;48.514;14.500;2024-02-15T09:52:28;4.85;;;2.08;;
81160;SDS011;70637;48.514;14.500;2024-02-15T09:54:57;4.47;;;2.20;;
81160;SDS011;70637;48.514;14.500;2024-02-15T09:57:25;5.15;;;2.22;;
81160;SDS011;70637;48.514;14.500;2024-02-15T09:59:52;4.93;;;2.28;;
81160;SDS011;70637;48.514;14.500;2024-02-15T10:02:19;6.97;;;2.47;;
81160;SDS011;70637;48.514;14.500;2024-02-15T10:04:46;5.20;;;1.98;;
81160;SDS011;70637;48.514;14.500;2024-02-15T10:07:12;4.57;;;2.20;;
81160;SDS011;70637;48.514;14.500;2024-02-15T10:09:38;4.85;;;1.95;;
81160;SDS011;70637;48.514;14.500;2024-02-15T10:12:07;4.35;;;2.15;;
81160;SDS011;70637;48.514;14.500;2024-02-15T10:14:34;5.90;;;2.13;;
81160;SDS011;70637;48.514;14.500;2024-02-15T10:17:05;5.10;;;2.22;;
81160;SDS011;70637;48.514;14.500;2024-02-15T10:19:36;4.22;;;2.00;;
81160;SDS011;70637;48.514;14.500;2024-02-15T10:22:09;4.78;;;1.90;;
81160;SDS011;70637;48.514;14.500;2024-02-15T10:24:35;3.00;;;1.60;;
81160;SDS011;70637;48.514;14.500;2024-02-15T10:27:04;3.95;;;1.80;;
81160;SDS011;70637;48.514;14.500;2024-02-15T10:29:35;5.35;;;2.17;;
81160;SDS011;70637;48.514;14.500;2024-02-15T10:32:02;5.78;;;2.13;;
81160;SDS011;70637;48.514;14.500;2024-02-15T10:34:28;4.63;;;1.92;;
81160;SDS011;70637;48.514;14.500;2024-02-15T10:37:10;4.07;;;2.00;;
81160;SDS011;70637;48.514;14.500;2024-02-15T10:39:38;5.55;;;2.08;;
81160;SDS011;70637;48.514;14.500;2024-02-15T10:42:06;4.43;;;1.85;;
81160;SDS011;70637;48.514;14.500;2024-02-15T10:44:36;3.20;;;1.83;;
81160;SDS011;70637;48.514;14.500;2024-02-15T10:47:03;3.45;;;1.88;;
81160;SDS011;70637;48.514;14.500;2024-02-15T10:49:32;3.83;;;1.90;;
81160;SDS011;70637;48.514;14.500;2024-02-15T10:51:59;3.05;;;1.70;;
81160;SDS011;70637;48.514;14.500;2024-02-15T10:54:52;4.32;;;1.90;;
81160;SDS011;70637;48.514;14.500;2024-02-15T10:57:22;4.60;;;1.88;;
81160;SDS011;70637;48.514;14.500;2024-02-15T10:59:58;4.10;;;2.03;;
81160;SDS011;70637;48.514;14.500;2024-02-15T11:02:56;3.65;;;1.90;;
81160;SDS011;70637;48.514;14.500;2024-02-15T11:05:27;3.80;;;1.88;;
81160;SDS011;70637;48.514;14.500;2024-02-15T11:07:56;3.85;;;2.00;;
81160;SDS011;70637;48.514;14.500;2024-02-15T11:10:23;4.10;;;1.88;;
81160;SDS011;70637;48.514;14.500;2024-02-15T11:12:52;4.78;;;2.05;;
81160;SDS011;70637;48.514;14.500;2024-02-15T11:18:06;4.78;;;1.88;;
81160;SDS011;70637;48.514;14.500;2024-02-15T11:22:58;2.95;;;1.73;;
81160;SDS011;70637;48.514;14.500;2024-02-15T11:25:37;4.13;;;1.90;;
81160;SDS011;70637;48.514;14.500;2024-02-15T11:30:54;4.25;;;1.95;;
81160;SDS011;70637;48.514;14.500;2024-02-15T11:33:35;3.17;;;1.70;;
81160;SDS011;70637;48.514;14.500;2024-02-15T11:38:35;3.67;;;2.10;;
81160;SDS011;70637;48.514;14.500;2024-02-15T11:41:07;4.50;;;1.92;;
81160;SDS011;70637;48.514;14.500;2024-02-15T11:46:16;4.07;;;1.90;;
81160;SDS011;70637;48.514;14.500;2024-02-15T11:48:43;3.17;;;1.70;;
81160;SDS011;70637;48.514;14.500;2024-02-15T11:51:26;5.90;;;1.80;;
81160;SDS011;70637;48.514;14.500;2024-02-15T11:53:58;4.70;;;1.67;;
81160;SDS011;70637;48.514;14.500;2024-02-15T11:56:32;3.83;;;1.98;;
81160;SDS011;70637;48.514;14.500;2024-02-15T11:59:12;3.67;;;1.50;;
81160;SDS011;70637;48.514;14.500;2024-02-15T12:01:54;4.43;;;2.03;;
81160;SDS011;70637;48.514;14.500;2024-02-15T12:04:39;2.88;;;1.67;;
81160;SDS011;70637;48.514;14.500;2024-02-15T12:07:24;3.50;;;1.90;;
81160;SDS011;70637;48.514;14.500;2024-02-15T12:10:15;2.72;;;1.60;;
81160;SDS011;70637;48.514;14.500;2024-02-15T12:13:02;5.22;;;2.00;;
81160;SDS011;70637;48.514;14.500;2024-02-15T12:15:59;3.75;;;2.00;;
81160;SDS011;70637;48.514;14.500;2024-02-15T12:18:44;3.47;;;1.65;;
81160;SDS011;70637;48.514;14.500;2024-02-15T12:21:14;3.63;;;1.85;;
81160;SDS011;70637;48.514;14.500;2024-02-15T12:23:42;4.72;;;2.17;;
81160;SDS011;70637;48.514;14.500;2024-02-15T12:26:08;3.45;;;1.85;;
81160;SDS011;70637;48.514;14.500;2024-02-15T12:28:34;3.95;;;1.80;;
81160;SDS011;70637;48.514;14.500;2024-02-15T12:31:00;4.18;;;1.67;;
81160;SDS011;70637;48.514;14.500;2024-02-15T12:33:26;3.80;;;1.80;;
81160;SDS011;70637;48.514;14.500;2024-02-15T12:35:52;4.72;;;1.83;;
81160;SDS011;70637;48.514;14.500;2024-02-15T12:38:34;4.85;;;1.63;;
81160;SDS011;70637;48.514;14.500;2024-02-15T12:41:02;3.28;;;1.95;;
81160;SDS011;70637;48.514;14.500;2024-02-15T12:43:29;3.13;;;1.58;;
81160;SDS011;70637;48.514;14.500;2024-02-15T12:45:55;3.85;;;1.67;;
81160;SDS011;70637;48.514;14.500;2024-02-15T12:48:22;3.78;;;1.90;;
81160;SDS011;70637;48.514;14.500;2024-02-15T12:50:48;3.38;;;1.52;;
81160;SDS011;70637;48.514;14.500;2024-02-15T12:53:20;3.60;;;1.80;;
81160;SDS011;70637;48.514;14.500;2024-02-15T12:55:52;4.10;;;1.60;;
81160;SDS011;70637;48.514;14.500;2024-02-15T12:58:21;3.63;;;1.88;;
81160;SDS011;70637;48.514;14.500;2024-02-15T13:00:49;3.28;;;1.75;;
81160;SDS011;70637;48.514;14.500;2024-02-15T13:03:15;3.90;;;1.70;;
81160;SDS011;70637;48.514;14.500;2024-02-15T13:05:42;4.30;;;1.67;;
81160;SDS011;70637;48.514;14.500;2024-02-15T13:08:08;4.00;;;1.98;;
81160;SDS011;70637;48.514;14.500;2024-02-15T13:10:42;2.92;;;1.60;;
81160;SDS011;70637;48.514;14.500;2024-02-15T13:13:08;4.72;;;1.50;;
81160;SDS011;70637;48.514;14.500;2024-02-15T13:15:36;3.58;;;1.60;;
81160;SDS011;70637;48.514;14.500;2024-02-15T13:18:02;5.65;;;1.67;;
81160;SDS011;70637;48.514;14.500;2024-02-15T13:20:34;2.35;;;1.40;;
81160;SDS011;70637;48.514;14.500;2024-02-15T13:23:03;2.25;;;1.40;;
81160;SDS011;70637;48.514;14.500;2024-02-15T13:25:56;2.50;;;1.70;;
81160;SDS011;70637;48.514;14.500;2024-02-15T13:28:22;4.50;;;1.88;;
81160;SDS011;70637;48.514;14.500;2024-02-15T13:30:49;4.13;;;1.65;;
81160;SDS011;70637;48.514;14.500;2024-02-15T13:33:19;3.33;;;1.67;;
81160;SDS011;70637;48.514;14.500;2024-02-15T13:35:45;3.20;;;1.27;;
81160;SDS011;70637;48.514;14.500;2024-02-15T13:38:11;3.95;;;1.73;;
81160;SDS011;70637;48.514;14.500;2024-02-15T13:40:47;3.40;;;1.67;;
81160;SDS011;70637;48.514;14.500;2024-02-15T13:43:16;4.20;;;1.90;;
81160;SDS011;70637;48.514;14.500;2024-02-15T13:45:43;4.20;;;1.73;;
81160;SDS011;70637;48.514;14.500;2024-02-15T13:48:10;2.63;;;1.38;;
81160;SDS011;70637;48.514;14.500;2024-02-15T13:50:39;3.17;;;1.52;;
81160;SDS011;70637;48.514;14.500;2024-02-15T13:53:05;2.67;;;1.58;;
81160;SDS011;70637;48.514;14.500;2024-02-15T13:55:31;2.60;;;1.30;;
81160;SDS011;70637;48.514;14.500;2024-02-15T13:57:57;3.03;;;1.60;;
81160;SDS011;70637;48.514;14.500;2024-02-15T14:00:25;2.60;;;1.40;;
81160;SDS011;70637;48.514;14.500;2024-02-15T14:03:02;3.80;;;1.60;;
81160;SDS011;70637;48.514;14.500;2024-02-15T14:05:31;3.42;;;1.38;;
81160;SDS011;70637;48.514;14.500;2024-02-15T14:07:58;2.83;;;1.60;;
81160;SDS011;70637;48.514;14.500;2024-02-15T14:10:25;3.63;;;1.70;;
81160;SDS011;70637;48.514;14.500;2024-02-15T14:12:53;3.08;;;1.50;;
81160;SDS011;70637;48.514;14.500;2024-02-15T14:15:27;3.22;;;1.60;;
81160;SDS011;70637;48.514;14.500;2024-02-15T14:17:53;3.42;;;1.70;;
81160;SDS011;70637;48.514;14.500;2024-02-15T14:20:20;3.58;;;1.45;;
81160;SDS011;70637;48.514;14.500;2024-02-15T14:22:47;3.15;;;1.40;;
81160;SDS011;70637;48.514;14.500;2024-02-15T14:25:23;3.33;;;1.40;;
81160;SDS011;70637;48.514;14.500;2024-02-15T14:27:50;2.60;;;1.45;;
81160;SDS011;70637;48.514;14.500;2024-02-15T14:30:18;2.30;;;1.52;;
81160;SDS011;70637;48.514;14.500;2024-02-15T14:33:02;2.47;;;1.40;;
81160;SDS011;70637;48.514;14.500;2024-02-15T14:35:34;2.60;;;1.38;;
81160;SDS011;70637;48.514;14.500;2024-02-15T14:38:03;2.45;;;1.30;;
81160;SDS011;70637;48.514;14.500;2024-02-15T14:40:36;3.60;;;1.50;;
81160;SDS011;70637;48.514;14.500;2024-02-15T14:43:03;2.65;;;1.60;;
81160;SDS011;70637;48.514;14.500;2024-02-15T14:45:30;3.65;;;1.48;;
81160;SDS011;70637;48.514;14.500;2024-02-15T14:47:58;2.53;;;1.30;;
81160;SDS011;70637;48.514;14.500;2024-02-15T14:50:24;3.25;;;1.50;;
81160;SDS011;70637;48.514;14.500;2024-02-15T14:52:50;2.78;;;1.30;;
81160;SDS011;70637;48.514;14.500;2024-02-15T14:55:17;3.00;;;1.35;;
81160;SDS011;70637;48.514;14.500;2024-02-15T14:57:44;3.20;;;1.55;;